Time;durP1;ratioP1;P1;durP2;ratioP2;P2;SDS_P1;SDS_P2;PMS_P1;PMS_P2;Temp;Humidity;BMP_temperature;BMP_pressure;BME280_temperature;BME280_humidity;BME280_pressure;Samples;Min_cycle;Max_cycle;Signal;HPM_P1;HPM_P2
2021/10/03 00:00:43;;;;;;;4.30;3.25;;;19.60;99.90;;;;;;2082171;28;20052;-69
2021/10/03 00:01:45;;;;;;;2.80;2.60;;;19.60;99.90;;;;;;2080723;28;20048;-69
2021/10/03 00:02:50;;;;;;;2.72;2.53;;;19.60;99.90;;;;;;2080520;28;20033;-69
2021/10/03 00:03:53;;;;;;;4.85;3.10;;;19.50;99.90;;;;;;2080632;28;20029;-69
2021/10/03 00:04:55;;;;;;;2.88;2.67;;;19.60;99.90;;;;;;2088930;28;20053;-69
2021/10/03 00:05:59;;;;;;;2.88;2.67;;;19.60;99.90;;;;;;2081566;28;20029;-69
2021/10/03 00:07:00;;;;;;;2.78;2.50;;;19.60;99.90;;;;;;2080162;28;20030;-69
2021/10/03 00:08:02;;;;;;;4.40;2.70;;;19.60;99.90;;;;;;2087546;28;20017;-69
2021/10/03 00:09:02;;;;;;;3.78;2.60;;;19.60;99.90;;;;;;2085595;28;20098;-70
2021/10/03 00:10:03;;;;;;;3.30;2.53;;;19.60;99.90;;;;;;2089506;28;20026;-69
2021/10/03 00:11:04;;;;;;;4.25;2.88;;;19.60;99.90;;;;;;2082540;28;20029;-69
2021/10/03 00:12:05;;;;;;;5.07;2.92;;;19.60;99.90;;;;;;2083763;28;20017;-69
2021/10/03 00:13:06;;;;;;;3.80;3.03;;;19.60;99.90;;;;;;2080910;28;20439;-69
2021/10/03 00:14:07;;;;;;;3.20;2.90;;;19.60;99.90;;;;;;2080487;28;20112;-69
2021/10/03 00:15:09;;;;;;;3.13;2.85;;;19.60;99.90;;;;;;2080778;28;20021;-69
2021/10/03 00:16:10;;;;;;;3.35;2.88;;;19.60;99.90;;;;;;2085324;28;20057;-69
2021/10/03 00:17:11;;;;;;;3.00;2.70;;;19.60;99.90;;;;;;2086070;28;20030;-69
2021/10/03 00:18:11;;;;;;;3.42;2.80;;;19.60;99.90;;;;;;2079426;28;20623;-69
2021/10/03 00:19:14;;;;;;;4.80;3.00;;;19.50;99.90;;;;;;2080338;28;20506;-69
2021/10/03 00:20:16;;;;;;;4.03;2.97;;;19.50;99.90;;;;;;2082506;28;20524;-69
2021/10/03 00:21:16;;;;;;;3.30;3.00;;;19.50;99.90;;;;;;2080823;28;20029;-69
2021/10/03 00:22:17;;;;;;;3.22;2.80;;;19.50;99.90;;;;;;2080536;28;20021;-69
2021/10/03 00:23:18;;;;;;;4.82;2.78;;;19.50;99.90;;;;;;2083007;28;20103;-69
2021/10/03 00:24:19;;;;;;;4.28;2.63;;;19.50;99.90;;;;;;2082221;28;20084;-69
2021/10/03 00:25:20;;;;;;;2.90;2.70;;;19.50;99.90;;;;;;2085689;28;20053;-69
2021/10/03 00:26:21;;;;;;;6.10;2.80;;;19.50;99.90;;;;;;2080349;28;20117;-69
2021/10/03 00:27:21;;;;;;;2.95;2.60;;;19.50;99.90;;;;;;2080206;28;20253;-69
2021/10/03 00:28:22;;;;;;;3.38;2.50;;;19.50;99.90;;;;;;2079867;28;20036;-69
2021/10/03 00:29:23;;;;;;;3.25;2.80;;;19.50;99.90;;;;;;2080511;28;20080;-69
2021/10/03 00:30:24;;;;;;;3.33;2.53;;;19.50;99.90;;;;;;2080049;28;20091;-69
2021/10/03 00:31:24;;;;;;;4.53;2.28;;;19.40;99.90;;;;;;2080478;28;20025;-69
2021/10/03 00:32:25;;;;;;;2.50;2.30;;;19.40;99.90;;;;;;2087974;28;20028;-69
2021/10/03 00:33:26;;;;;;;3.45;2.72;;;19.40;99.90;;;;;;2086323;28;20036;-69
2021/10/03 00:34:27;;;;;;;3.30;2.70;;;19.40;99.90;;;;;;2088784;28;20017;-69
2021/10/03 00:35:27;;;;;;;3.28;2.40;;;19.40;99.90;;;;;;2081811;28;20026;-69
2021/10/03 00:36:28;;;;;;;4.07;2.90;;;19.40;99.90;;;;;;2080290;28;20095;-69
2021/10/03 00:37:29;;;;;;;2.55;2.35;;;19.40;99.90;;;;;;2084702;28;20064;-69
2021/10/03 00:38:29;;;;;;;4.10;2.45;;;19.30;99.90;;;;;;2082692;28;20468;-69
2021/10/03 00:39:30;;;;;;;2.45;2.25;;;19.40;99.90;;;;;;2087887;28;20605;-69
2021/10/03 00:40:36;;;;;;;3.03;2.72;;;19.40;99.90;;;;;;2085051;28;20079;-70
2021/10/03 00:41:37;;;;;;;3.15;2.50;;;19.40;99.90;;;;;;2085550;28;20118;-69
2021/10/03 00:42:38;;;;;;;2.78;2.50;;;19.40;99.90;;;;;;2080156;28;20063;-69
2021/10/03 00:43:39;;;;;;;3.05;2.75;;;19.30;99.90;;;;;;2080258;28;20021;-69
2021/10/03 00:44:40;;;;;;;4.30;2.70;;;19.30;99.90;;;;;;2082554;28;20034;-69
2021/10/03 00:45:41;;;;;;;2.38;2.17;;;19.30;99.90;;;;;;2088687;28;20434;-69
2021/10/03 00:46:42;;;;;;;4.10;2.53;;;19.30;99.90;;;;;;2088495;28;20118;-69
2021/10/03 00:47:43;;;;;;;5.50;3.00;;;19.30;99.90;;;;;;2088127;28;20025;-69
2021/10/03 00:48:44;;;;;;;3.20;2.90;;;19.30;99.90;;;;;;2081673;28;20849;-70
2021/10/03 00:49:45;;;;;;;4.50;2.35;;;19.20;99.90;;;;;;2080049;28;20449;-70
2021/10/03 00:50:46;;;;;;;4.68;3.05;;;19.20;99.90;;;;;;2080317;28;20028;-69
2021/10/03 00:51:47;;;;;;;2.75;2.40;;;19.20;99.90;;;;;;2080314;28;20037;-69
2021/10/03 00:52:49;;;;;;;2.47;2.30;;;19.20;99.90;;;;;;2083392;28;20035;-69
2021/10/03 00:53:49;;;;;;;2.88;2.33;;;19.20;99.90;;;;;;2088703;28;20040;-69
2021/10/03 00:54:50;;;;;;;2.90;2.55;;;19.20;99.90;;;;;;2088540;28;20037;-69
2021/10/03 00:55:51;;;;;;;3.20;2.80;;;19.20;99.90;;;;;;2088454;28;20029;-69
2021/10/03 00:56:51;;;;;;;4.95;2.60;;;19.10;99.90;;;;;;2088441;28;20048;-69
2021/10/03 00:57:52;;;;;;;3.20;2.50;;;19.10;99.90;;;;;;2084496;28;20026;-70
2021/10/03 00:58:53;;;;;;;3.15;2.63;;;19.10;99.90;;;;;;2082415;28;20030;-69
2021/10/03 00:59:54;;;;;;;4.38;2.70;;;19.10;99.90;;;;;;2081046;28;20022;-69
2021/10/03 01:00:55;;;;;;;3.63;2.83;;;19.10;99.90;;;;;;2081177;28;20436;-69
2021/10/03 01:01:56;;;;;;;5.45;2.60;;;19.00;99.90;;;;;;2082681;28;20094;-69
2021/10/03 01:02:59;;;;;;;3.60;2.55;;;19.00;99.90;;;;;;2083153;28;20022;-69
2021/10/03 01:04:00;;;;;;;2.72;2.53;;;19.00;99.90;;;;;;2080106;28;20021;-69
2021/10/03 01:05:01;;;;;;;3.17;2.60;;;19.00;99.90;;;;;;2080278;28;20025;-69
2021/10/03 01:06:03;;;;;;;2.97;2.78;;;19.00;99.90;;;;;;2079976;28;20022;-69
2021/10/03 01:07:04;;;;;;;3.30;3.10;;;19.00;99.90;;;;;;2080328;28;20544;-69
2021/10/03 01:08:05;;;;;;;3.35;2.97;;;19.00;99.90;;;;;;2079740;28;20021;-69
2021/10/03 01:09:06;;;;;;;3.50;2.80;;;19.00;99.90;;;;;;2079930;28;20014;-68
2021/10/03 01:10:13;;;;;;;2.53;2.42;;;19.00;99.90;;;;;;2079985;28;20029;-69
2021/10/03 01:11:13;;;;;;;3.45;2.92;;;18.90;99.90;;;;;;2080423;28;20021;-69
2021/10/03 01:12:14;;;;;;;3.20;2.53;;;18.90;99.90;;;;;;2079267;28;20535;-69
2021/10/03 01:13:16;;;;;;;3.10;2.80;;;18.90;99.90;;;;;;2079632;28;20036;-69
2021/10/03 01:14:18;;;;;;;3.08;2.78;;;18.90;99.90;;;;;;2080854;28;20036;-69
2021/10/03 01:15:18;;;;;;;3.83;2.92;;;18.90;99.90;;;;;;2088139;28;20020;-69
2021/10/03 01:16:19;;;;;;;3.38;3.08;;;18.90;99.90;;;;;;2088229;28;20029;-69
2021/10/03 01:17:20;;;;;;;3.88;3.03;;;18.90;99.90;;;;;;2084577;28;20048;-69
2021/10/03 01:18:20;;;;;;;3.17;2.88;;;18.80;99.90;;;;;;2080394;28;20096;-69
2021/10/03 01:19:21;;;;;;;5.32;2.78;;;18.80;99.90;;;;;;2079984;28;20039;-69
2021/10/03 01:20:23;;;;;;;5.10;3.20;;;18.80;99.90;;;;;;2079914;28;20063;-69
2021/10/03 01:21:25;;;;;;;5.20;3.05;;;18.80;99.90;;;;;;2080391;28;20079;-69
2021/10/03 01:22:26;;;;;;;5.03;2.97;;;18.80;99.90;;;;;;2080144;28;20051;-69
2021/10/03 01:23:26;;;;;;;4.03;3.08;;;18.80;99.90;;;;;;2080862;28;20112;-69
2021/10/03 01:24:32;;;;;;;4.93;3.17;;;18.80;99.90;;;;;;2088068;28;20052;-69
2021/10/03 01:25:36;;;;;;;2.90;2.70;;;18.80;99.90;;;;;;2083032;28;20035;-69
2021/10/03 01:26:37;;;;;;;3.85;2.45;;;18.80;99.90;;;;;;2079750;28;20457;-68
2021/10/03 01:27:38;;;;;;;3.03;2.78;;;18.80;99.90;;;;;;2079623;28;20051;-69
2021/10/03 01:28:39;;;;;;;3.70;2.83;;;18.70;99.90;;;;;;2082612;28;20020;-69
2021/10/03 01:29:39;;;;;;;2.70;2.50;;;18.70;99.90;;;;;;2088110;28;20080;-69
2021/10/03 01:30:44;;;;;;;3.97;2.30;;;18.70;99.90;;;;;;2082093;28;20068;-69
2021/10/03 01:31:45;;;;;;;2.90;2.70;;;18.80;99.90;;;;;;2082514;28;20040;-69
2021/10/03 01:32:45;;;;;;;3.63;3.17;;;18.70;99.90;;;;;;2084002;28;20500;-68
2021/10/03 01:33:46;;;;;;;3.85;2.72;;;18.70;99.90;;;;;;2079990;28;20037;-69
2021/10/03 01:34:47;;;;;;;3.25;2.95;;;18.70;99.90;;;;;;2079980;28;20030;-69
2021/10/03 01:35:48;;;;;;;3.47;3.17;;;18.70;99.90;;;;;;2079808;28;20033;-69
2021/10/03 01:36:49;;;;;;;2.47;2.28;;;18.70;99.90;;;;;;2079785;28;20117;-69
2021/10/03 01:37:50;;;;;;;2.95;2.67;;;18.70;99.90;;;;;;2080613;28;20029;-69
2021/10/03 01:38:52;;;;;;;4.65;2.90;;;18.70;99.90;;;;;;2086306;28;20036;-69
2021/10/03 01:39:52;;;;;;;3.10;2.75;;;18.70;99.90;;;;;;2085625;28;20025;-69
2021/10/03 01:40:53;;;;;;;5.07;3.10;;;18.70;99.90;;;;;;2084395;28;20029;-69
2021/10/03 01:41:54;;;;;;;3.33;2.33;;;18.70;99.90;;;;;;2082197;28;20024;-69
2021/10/03 01:42:55;;;;;;;2.72;2.53;;;18.70;99.90;;;;;;2079851;28;20113;-69
2021/10/03 01:43:55;;;;;;;3.38;2.53;;;18.70;99.90;;;;;;2080142;28;20036;-69
2021/10/03 01:44:56;;;;;;;4.40;2.60;;;18.70;99.90;;;;;;2080054;28;20048;-69
2021/10/03 01:45:57;;;;;;;3.63;2.90;;;18.70;99.90;;;;;;2081699;28;20022;-69
2021/10/03 01:46:57;;;;;;;3.65;2.65;;;18.70;99.90;;;;;;2080148;28;20056;-69
2021/10/03 01:48:07;;;;;;;2.97;2.55;;;18.70;99.90;;;;;;2079369;28;20104;-69
2021/10/03 01:49:08;;;;;;;2.60;2.40;;;18.70;99.90;;;;;;2079754;28;20033;-69
2021/10/03 01:50:08;;;;;;;2.95;2.65;;;18.70;99.90;;;;;;2079518;28;20021;-69
2021/10/03 01:51:11;;;;;;;8.75;2.58;;;18.70;99.90;;;;;;2076616;28;20039;-69
2021/10/03 01:52:11;;;;;;;2.28;2.15;;;18.70;99.90;;;;;;2087844;28;20053;-69
2021/10/03 01:53:38;;;;;;;2.65;2.45;;;18.70;99.90;;;;;;2083676;28;20029;-69
2021/10/03 01:54:39;;;;;;;2.85;2.58;;;18.70;99.90;;;;;;2083328;28;20034;-69
2021/10/03 01:55:41;;;;;;;2.88;2.58;;;18.70;99.90;;;;;;2079819;28;20437;-69
2021/10/03 01:56:41;;;;;;;3.38;2.40;;;18.70;99.90;;;;;;2079443;28;20061;-69
2021/10/03 01:57:42;;;;;;;2.58;2.38;;;18.70;99.90;;;;;;2083304;28;20034;-69
2021/10/03 01:58:51;;;;;;;4.50;2.88;;;18.70;99.90;;;;;;2079673;28;20017;-69
2021/10/03 01:59:51;;;;;;;2.67;2.40;;;18.70;99.90;;;;;;2080201;28;20512;-69
2021/10/03 02:00:57;;;;;;;5.05;2.83;;;18.70;99.90;;;;;;2080449;28;20490;-69
2021/10/03 02:01:58;;;;;;;3.80;2.67;;;18.70;99.90;;;;;;2081574;28;20025;-69
2021/10/03 02:03:00;;;;;;;3.10;2.40;;;18.70;99.90;;;;;;2083388;28;20026;-69
2021/10/03 02:04:06;;;;;;;2.72;2.53;;;18.70;99.90;;;;;;2081164;28;20109;-69
2021/10/03 02:05:06;;;;;;;3.40;2.17;;;18.80;99.90;;;;;;2081163;28;20389;-69
2021/10/03 02:06:07;;;;;;;3.35;2.40;;;18.70;99.90;;;;;;2081101;28;20025;-69
2021/10/03 02:07:08;;;;;;;2.17;2.08;;;18.80;99.90;;;;;;2080930;28;20031;-69
2021/10/03 02:08:11;;;;;;;4.72;2.47;;;18.80;99.90;;;;;;2080685;28;20025;-68
2021/10/03 02:09:13;;;;;;;2.33;2.13;;;18.80;99.90;;;;;;2084940;28;20044;-69
2021/10/03 02:10:14;;;;;;;1.85;1.75;;;18.80;99.90;;;;;;2084652;28;20018;-69
2021/10/03 02:11:15;;;;;;;1.98;1.85;;;18.80;99.90;;;;;;2084279;28;20049;-69
2021/10/03 02:12:15;;;;;;;3.83;2.47;;;18.80;99.90;;;;;;2081246;28;20029;-69
2021/10/03 02:13:18;;;;;;;2.20;1.98;;;18.80;99.90;;;;;;2081135;28;20052;-69
2021/10/03 02:14:20;;;;;;;2.00;1.90;;;18.80;99.90;;;;;;2081041;28;20018;-69
2021/10/03 02:15:21;;;;;;;2.30;2.10;;;18.80;99.90;;;;;;2081142;28;20478;-69
2021/10/03 02:16:21;;;;;;;8.68;2.03;;;18.80;99.90;;;;;;2089348;28;20373;-69
2021/10/03 02:17:22;;;;;;;6.97;2.00;;;18.80;99.90;;;;;;2085522;28;20028;-70
2021/10/03 02:18:31;;;;;;;2.85;1.80;;;18.80;99.90;;;;;;2080203;28;20029;-69
2021/10/03 02:19:31;;;;;;;2.35;2.17;;;18.90;99.90;;;;;;2089507;28;20032;-69
2021/10/03 02:20:33;;;;;;;2.55;2.00;;;18.80;99.90;;;;;;2089033;28;20029;-69
2021/10/03 02:21:34;;;;;;;5.18;1.92;;;18.90;99.90;;;;;;2089397;28;20016;-69
2021/10/03 02:22:36;;;;;;;2.60;2.10;;;18.90;99.90;;;;;;2089117;28;20025;-69
2021/10/03 02:23:37;;;;;;;2.15;1.80;;;18.90;99.90;;;;;;2089191;28;20013;-69
2021/10/03 02:24:37;;;;;;;3.58;2.13;;;18.90;99.90;;;;;;2086514;28;20032;-69
2021/10/03 02:25:43;;;;;;;3.50;1.88;;;18.90;99.90;;;;;;2080765;28;20056;-69
2021/10/03 02:26:44;;;;;;;1.95;1.85;;;18.90;99.90;;;;;;2080889;28;20562;-69
2021/10/03 02:27:45;;;;;;;1.85;1.75;;;18.90;99.90;;;;;;2081162;28;20420;-69
2021/10/03 02:28:46;;;;;;;4.45;1.90;;;18.90;99.90;;;;;;2079698;28;20030;-69
2021/10/03 02:29:46;;;;;;;3.28;1.80;;;18.90;99.90;;;;;;2080361;28;20041;-70
2021/10/03 02:30:50;;;;;;;3.10;2.00;;;18.90;99.90;;;;;;2086647;28;20036;-69
2021/10/03 02:31:51;;;;;;;1.70;1.55;;;18.90;99.90;;;;;;2086021;28;20419;-69
2021/10/03 02:32:52;;;;;;;1.98;1.85;;;18.90;99.90;;;;;;2081080;28;20025;-69
2021/10/03 02:33:52;;;;;;;2.78;2.03;;;19.00;99.90;;;;;;2081107;28;20029;-69
2021/10/03 02:34:53;;;;;;;2.90;2.28;;;18.90;99.90;;;;;;2080701;28;20045;-69
2021/10/03 02:35:55;;;;;;;3.38;1.70;;;18.90;99.90;;;;;;2080968;28;20057;-69
2021/10/03 02:36:55;;;;;;;3.15;1.70;;;18.90;99.90;;;;;;2080784;28;20378;-69
2021/10/03 02:37:56;;;;;;;3.40;2.05;;;18.90;99.90;;;;;;2082430;28;20113;-69
2021/10/03 02:38:57;;;;;;;4.78;2.20;;;19.00;99.90;;;;;;2088157;28;20017;-69
2021/10/03 02:39:58;;;;;;;2.20;2.00;;;19.00;99.90;;;;;;2086408;28;20108;-69
2021/10/03 02:41:00;;;;;;;3.45;2.35;;;19.00;99.90;;;;;;2088795;28;20029;-69
2021/10/03 02:42:01;;;;;;;2.67;1.92;;;19.00;99.90;;;;;;2082424;28;20041;-69
2021/10/03 02:43:05;;;;;;;2.10;1.88;;;19.00;99.90;;;;;;2080835;28;20022;-69
2021/10/03 02:44:08;;;;;;;2.50;1.70;;;19.00;99.90;;;;;;2081213;28;20020;-69
2021/10/03 02:45:10;;;;;;;3.90;2.22;;;19.00;99.90;;;;;;2086792;28;20025;-69
2021/10/03 02:46:11;;;;;;;2.03;1.60;;;19.00;99.90;;;;;;2088976;28;20024;-69
2021/10/03 02:47:12;;;;;;;4.13;1.90;;;19.00;99.90;;;;;;2089044;28;20101;-69
2021/10/03 02:48:14;;;;;;;3.70;2.00;;;19.00;99.90;;;;;;2088792;28;20025;-69
2021/10/03 02:49:14;;;;;;;1.95;1.85;;;19.00;99.90;;;;;;2088899;28;20179;-69
2021/10/03 02:50:15;;;;;;;2.55;1.70;;;19.00;99.90;;;;;;2088984;28;20021;-69
2021/10/03 02:51:18;;;;;;;2.30;2.00;;;19.00;99.90;;;;;;2089179;28;20017;-69
2021/10/03 02:52:18;;;;;;;2.38;2.17;;;19.00;99.90;;;;;;2088770;28;20036;-69
2021/10/03 02:53:20;;;;;;;3.33;1.80;;;19.00;99.90;;;;;;2082238;28;20021;-69
2021/10/03 02:54:21;;;;;;;2.15;1.98;;;19.00;99.90;;;;;;2080790;28;20096;-70
2021/10/03 02:55:22;;;;;;;2.15;1.95;;;19.00;99.90;;;;;;2080784;28;20017;-69
2021/10/03 02:56:27;;;;;;;3.20;1.67;;;19.00;99.90;;;;;;2080973;28;20044;-69
2021/10/03 02:57:28;;;;;;;5.68;1.95;;;19.00;99.90;;;;;;2085142;28;20040;-69
2021/10/03 02:58:29;;;;;;;3.40;1.80;;;19.00;99.90;;;;;;2080698;28;20016;-69
2021/10/03 02:59:30;;;;;;;6.50;2.30;;;19.00;99.90;;;;;;2086315;28;20017;-69
2021/10/03 03:00:33;;;;;;;1.98;1.88;;;19.00;99.90;;;;;;2082369;28;20029;-69
2021/10/03 03:01:34;;;;;;;1.85;1.75;;;19.00;99.90;;;;;;2082547;28;20393;-69
2021/10/03 03:02:34;;;;;;;2.05;1.77;;;19.00;99.90;;;;;;2080875;28;20049;-69
2021/10/03 03:03:36;;;;;;;3.08;1.90;;;19.00;99.90;;;;;;2082897;28;20048;-70
2021/10/03 03:04:36;;;;;;;2.22;2.00;;;19.00;99.90;;;;;;2087588;28;20044;-69
2021/10/03 03:05:37;;;;;;;3.75;2.28;;;19.00;99.90;;;;;;2083034;28;20025;-69
2021/10/03 03:06:38;;;;;;;3.33;1.92;;;19.00;99.90;;;;;;2081526;28;20033;-70
2021/10/03 03:07:38;;;;;;;2.83;1.83;;;19.00;99.90;;;;;;2081566;28;20029;-70
2021/10/03 03:08:39;;;;;;;2.22;2.03;;;19.00;99.90;;;;;;2081148;28;20040;-70
2021/10/03 03:09:40;;;;;;;2.10;2.00;;;19.00;99.90;;;;;;2081654;28;20477;-69
2021/10/03 03:10:41;;;;;;;2.97;1.90;;;19.00;99.90;;;;;;2080945;28;20030;-70
2021/10/03 03:11:41;;;;;;;3.60;2.38;;;19.00;99.90;;;;;;2079697;28;20044;-70
2021/10/03 03:12:42;;;;;;;3.03;2.42;;;19.00;99.90;;;;;;2080579;28;20069;-69
2021/10/03 03:13:43;;;;;;;2.45;2.20;;;19.00;99.90;;;;;;2081400;28;20025;-70
2021/10/03 03:14:43;;;;;;;3.65;2.17;;;19.00;99.90;;;;;;2081341;28;20072;-69
2021/10/03 03:15:44;;;;;;;2.10;1.90;;;19.00;99.90;;;;;;2084537;28;20021;-69
2021/10/03 03:16:48;;;;;;;4.15;2.38;;;18.90;99.90;;;;;;2089175;28;20032;-69
2021/10/03 03:17:49;;;;;;;2.53;2.15;;;18.90;99.90;;;;;;2085393;28;20489;-69
2021/10/03 03:18:49;;;;;;;4.93;2.50;;;18.90;99.90;;;;;;2085214;28;20158;-69
2021/10/03 03:19:50;;;;;;;2.53;2.20;;;18.90;99.90;;;;;;2081291;28;20022;-69
2021/10/03 03:20:51;;;;;;;2.10;2.00;;;18.90;99.90;;;;;;2080796;28;20029;-69
2021/10/03 03:21:52;;;;;;;2.00;1.90;;;18.90;99.90;;;;;;2081198;28;20025;-69
2021/10/03 03:22:52;;;;;;;2.92;2.17;;;18.90;99.90;;;;;;2080975;28;20033;-69
2021/10/03 03:23:53;;;;;;;2.60;2.40;;;18.90;99.90;;;;;;2081200;28;20018;-69
2021/10/03 03:24:53;;;;;;;2.45;2.25;;;18.80;99.90;;;;;;2081201;28;20028;-69
2021/10/03 03:25:54;;;;;;;3.40;2.17;;;18.80;99.90;;;;;;2081262;28;20025;-69
2021/10/03 03:26:54;;;;;;;2.28;2.08;;;18.80;99.90;;;;;;2080969;28;20037;-69
2021/10/03 03:27:55;;;;;;;4.20;2.60;;;18.80;99.90;;;;;;2080865;28;20060;-69
2021/10/03 03:28:56;;;;;;;3.42;2.67;;;18.80;99.90;;;;;;2080492;28;20539;-69
2021/10/03 03:29:56;;;;;;;3.30;2.70;;;18.80;99.90;;;;;;2081142;28;20036;-69
2021/10/03 03:30:57;;;;;;;2.70;2.50;;;18.80;99.90;;;;;;2080791;28;20119;-69
2021/10/03 03:31:59;;;;;;;3.58;2.55;;;18.80;99.90;;;;;;2085339;28;20536;-70
2021/10/03 03:33:00;;;;;;;3.55;2.35;;;18.80;99.90;;;;;;2089248;28;20025;-69
2021/10/03 03:34:00;;;;;;;4.90;2.90;;;18.70;99.90;;;;;;2082144;28;20075;-69
2021/10/03 03:35:02;;;;;;;4.07;2.50;;;18.70;99.90;;;;;;2080956;28;20022;-69
2021/10/03 03:36:02;;;;;;;2.60;2.40;;;18.70;99.90;;;;;;2080908;28;20038;-69
2021/10/03 03:37:03;;;;;;;2.50;2.30;;;18.70;99.90;;;;;;2081257;28;20056;-69
2021/10/03 03:38:04;;;;;;;3.25;2.63;;;18.70;99.90;;;;;;2081313;28;20509;-69
2021/10/03 03:39:04;;;;;;;3.63;2.75;;;18.70;99.90;;;;;;2088856;28;20052;-69
2021/10/03 03:40:09;;;;;;;3.20;2.78;;;18.70;99.90;;;;;;2085620;28;20033;-69
2021/10/03 03:41:10;;;;;;;2.85;2.60;;;18.70;99.90;;;;;;2089497;28;20463;-69
2021/10/03 03:42:10;;;;;;;4.28;2.80;;;18.70;99.90;;;;;;2081548;28;20029;-69
2021/10/03 03:43:11;;;;;;;4.95;2.47;;;18.70;99.90;;;;;;2080940;28;20049;-69
2021/10/03 03:44:12;;;;;;;6.85;3.55;;;18.60;99.90;;;;;;2080830;28;20036;-69
2021/10/03 03:45:13;;;;;;;3.83;2.70;;;18.60;99.90;;;;;;2082142;28;20465;-69
2021/10/03 03:46:13;;;;;;;4.47;2.75;;;18.60;99.90;;;;;;2081032;28;20028;-69
2021/10/03 03:47:14;;;;;;;4.38;2.38;;;18.60;99.90;;;;;;2080833;28;20121;-70
2021/10/03 03:48:15;;;;;;;3.88;3.08;;;18.60;99.90;;;;;;2080415;28;21125;-69
2021/10/03 03:49:15;;;;;;;3.45;3.10;;;18.60;99.90;;;;;;2081195;28;20013;-69
2021/10/03 03:50:16;;;;;;;2.88;2.67;;;18.60;99.90;;;;;;2080703;28;20018;-70
2021/10/03 03:51:17;;;;;;;2.78;2.58;;;18.60;99.90;;;;;;2081021;28;20017;-69
2021/10/03 03:52:19;;;;;;;3.33;2.75;;;18.60;99.90;;;;;;2089178;28;20017;-69
2021/10/03 03:53:19;;;;;;;2.72;2.53;;;18.60;99.90;;;;;;2084979;28;20021;-69
2021/10/03 03:54:20;;;;;;;3.70;2.80;;;18.60;99.90;;;;;;2087643;28;20032;-70
2021/10/03 03:55:20;;;;;;;2.72;2.50;;;18.50;99.90;;;;;;2080762;28;20021;-69
2021/10/03 03:56:21;;;;;;;3.28;2.97;;;18.50;99.90;;;;;;2080894;28;20025;-69
2021/10/03 03:57:21;;;;;;;3.72;3.13;;;18.50;99.90;;;;;;2085010;28;20150;-70
2021/10/03 03:58:22;;;;;;;3.78;3.38;;;18.50;99.90;;;;;;2081671;28;20028;-69
2021/10/03 03:59:25;;;;;;;3.05;2.75;;;18.50;99.90;;;;;;2084367;28;20028;-69
2021/10/03 04:00:26;;;;;;;3.53;3.22;;;18.50;99.90;;;;;;2088187;28;20025;-69
2021/10/03 04:01:27;;;;;;;3.50;3.20;;;18.50;99.90;;;;;;2086197;28;20849;-69
2021/10/03 04:02:27;;;;;;;5.05;3.10;;;18.50;99.90;;;;;;2087014;28;20021;-69
2021/10/03 04:03:28;;;;;;;4.90;3.05;;;18.50;99.90;;;;;;2084609;28;20508;-69
2021/10/03 04:04:28;;;;;;;3.42;3.08;;;18.50;99.90;;;;;;2083732;28;20028;-70
2021/10/03 04:05:29;;;;;;;3.47;3.10;;;18.50;99.90;;;;;;2079776;28;20033;-69
2021/10/03 04:06:30;;;;;;;3.78;3.35;;;18.50;99.90;;;;;;2080340;28;20715;-69
2021/10/03 04:07:31;;;;;;;3.67;3.22;;;18.50;99.90;;;;;;2081195;28;21138;-69
2021/10/03 04:08:31;;;;;;;4.28;3.50;;;18.50;99.90;;;;;;2080261;28;20083;-69
2021/10/03 04:09:32;;;;;;;2.95;2.75;;;18.50;99.90;;;;;;2080669;28;20117;-69
2021/10/03 04:10:32;;;;;;;4.10;3.40;;;18.50;99.90;;;;;;2080006;28;20064;-69
2021/10/03 04:11:33;;;;;;;5.10;3.35;;;18.50;99.90;;;;;;2081006;28;20035;-70
2021/10/03 04:12:35;;;;;;;3.05;2.85;;;18.50;99.90;;;;;;2085973;28;20037;-69
2021/10/03 04:13:35;;;;;;;4.45;3.63;;;18.40;99.90;;;;;;2088843;28;20428;-69
2021/10/03 04:14:36;;;;;;;4.20;3.28;;;18.40;99.90;;;;;;2080512;28;20022;-69
2021/10/03 04:15:36;;;;;;;3.58;3.28;;;18.40;99.90;;;;;;2083102;28;20036;-69
2021/10/03 04:16:37;;;;;;;4.00;3.35;;;18.40;99.90;;;;;;2088599;28;20031;-70
2021/10/03 04:17:37;;;;;;;3.70;3.30;;;18.40;99.90;;;;;;2082356;28;20025;-70
2021/10/03 04:18:38;;;;;;;5.32;3.92;;;18.40;99.90;;;;;;2079905;28;20025;-69
2021/10/03 04:19:39;;;;;;;4.90;3.50;;;18.40;99.90;;;;;;2080594;28;20033;-69
2021/10/03 04:20:40;;;;;;;5.45;3.55;;;18.40;99.90;;;;;;2085784;28;20083;-69
2021/10/03 04:21:41;;;;;;;4.30;3.22;;;18.40;99.90;;;;;;2088827;28;20029;-69
2021/10/03 04:22:42;;;;;;;3.83;3.10;;;18.40;99.90;;;;;;2089233;28;20133;-69
2021/10/03 04:23:42;;;;;;;4.38;3.60;;;18.40;99.90;;;;;;2088757;28;20373;-68
2021/10/03 04:24:43;;;;;;;3.97;3.30;;;18.40;99.90;;;;;;2088723;28;20042;-70
2021/10/03 04:25:43;;;;;;;4.55;3.65;;;18.40;99.90;;;;;;2085397;28;20049;-69
2021/10/03 04:26:44;;;;;;;4.72;3.40;;;18.40;99.90;;;;;;2080585;28;20041;-70
2021/10/03 04:27:44;;;;;;;4.45;3.72;;;18.40;99.90;;;;;;2094300;28;20032;-70
2021/10/03 04:28:45;;;;;;;3.70;3.40;;;18.40;99.90;;;;;;2085139;28;20477;-69
2021/10/03 04:29:46;;;;;;;4.43;3.95;;;18.30;99.90;;;;;;2092455;28;20039;-70
2021/10/03 04:30:46;;;;;;;5.78;3.92;;;18.40;99.90;;;;;;2080568;28;20025;-69
2021/10/03 04:31:47;;;;;;;4.88;4.43;;;18.30;99.90;;;;;;2080480;28;20037;-69
2021/10/03 04:32:47;;;;;;;5.93;4.03;;;18.30;99.90;;;;;;2080679;28;20068;-69
2021/10/03 04:33:48;;;;;;;4.30;3.90;;;18.30;99.90;;;;;;2080439;28;20485;-69
2021/10/03 04:34:49;;;;;;;4.53;4.13;;;18.30;99.90;;;;;;2081759;28;20037;-69
2021/10/03 04:35:49;;;;;;;4.30;3.90;;;18.30;99.90;;;;;;2088688;28;20021;-69
2021/10/03 04:36:51;;;;;;;4.88;4.38;;;18.30;99.90;;;;;;2088853;28;20061;-69
2021/10/03 04:37:51;;;;;;;5.60;4.05;;;18.30;99.90;;;;;;2082736;28;20029;-70
2021/10/03 04:38:52;;;;;;;6.85;4.20;;;18.30;99.90;;;;;;2086800;28;20060;-70
2021/10/03 04:39:52;;;;;;;5.50;4.50;;;18.30;99.90;;;;;;2084287;28;20029;-70
2021/10/03 04:40:53;;;;;;;4.28;3.88;;;18.30;99.90;;;;;;2087795;28;20029;-69
2021/10/03 04:41:54;;;;;;;5.15;3.83;;;18.30;99.90;;;;;;2082375;28;20822;-69
2021/10/03 04:42:54;;;;;;;4.35;3.95;;;18.30;99.90;;;;;;2080485;28;20339;-69
2021/10/03 04:43:55;;;;;;;5.35;4.85;;;18.30;99.90;;;;;;2080518;28;20025;-69
2021/10/03 04:44:55;;;;;;;5.03;4.15;;;18.30;99.90;;;;;;2084829;28;20048;-69
2021/10/03 04:45:56;;;;;;;4.50;4.07;;;18.30;99.90;;;;;;2088726;28;20017;-69
2021/10/03 04:46:58;;;;;;;6.47;4.47;;;18.30;99.90;;;;;;2088468;28;20029;-69
2021/10/03 04:48:02;;;;;;;6.18;4.93;;;18.30;99.90;;;;;;2088587;28;20103;-70
2021/10/03 04:49:03;;;;;;;5.90;4.78;;;18.30;99.90;;;;;;2088218;28;20029;-69
2021/10/03 04:50:04;;;;;;;5.80;3.97;;;18.30;99.90;;;;;;2087737;28;20044;-70
2021/10/03 04:51:05;;;;;;;7.80;4.45;;;18.30;99.90;;;;;;2088070;28;20485;-69
2021/10/03 04:52:06;;;;;;;5.20;4.70;;;18.20;99.90;;;;;;2088269;28;20388;-69
2021/10/03 04:53:06;;;;;;;5.88;4.32;;;18.20;99.90;;;;;;2082389;28;20421;-70
2021/10/03 04:54:07;;;;;;;7.47;5.32;;;18.20;99.90;;;;;;2095873;28;20130;-69
2021/10/03 04:55:09;;;;;;;7.32;4.32;;;18.20;99.90;;;;;;2082226;28;20025;-69
2021/10/03 04:56:10;;;;;;;5.20;4.70;;;18.20;99.90;;;;;;2089269;28;20029;-69
2021/10/03 04:57:10;;;;;;;5.82;5.03;;;18.20;99.90;;;;;;2082902;28;20055;-69
2021/10/03 04:58:11;;;;;;;5.05;4.55;;;18.20;99.90;;;;;;2080827;28;20018;-70
2021/10/03 04:59:12;;;;;;;6.72;5.35;;;18.20;99.90;;;;;;2083548;28;20048;-69
2021/10/03 05:00:13;;;;;;;5.45;4.85;;;18.20;99.90;;;;;;2080381;28;20080;-69
2021/10/03 05:01:14;;;;;;;6.13;4.70;;;18.20;99.90;;;;;;2085583;28;20078;-69
2021/10/03 05:02:15;;;;;;;5.18;4.78;;;18.20;99.90;;;;;;2088137;28;20056;-70
2021/10/03 05:03:15;;;;;;;5.93;5.28;;;18.20;99.90;;;;;;2080237;28;20017;-70
2021/10/03 05:04:16;;;;;;;7.88;5.22;;;18.20;99.90;;;;;;2080179;28;20096;-69
2021/10/03 05:05:16;;;;;;;6.13;5.38;;;18.20;99.90;;;;;;2080127;28;20033;-69
2021/10/03 05:06:17;;;;;;;8.35;5.18;;;18.20;99.90;;;;;;2081556;28;20076;-69
2021/10/03 05:07:18;;;;;;;5.80;5.30;;;18.20;99.90;;;;;;2082600;28;20037;-69
2021/10/03 05:08:18;;;;;;;6.15;4.95;;;18.20;99.90;;;;;;2079467;28;20108;-70
2021/10/03 05:09:19;;;;;;;5.60;4.93;;;18.20;99.90;;;;;;2084797;28;20021;-70
2021/10/03 05:10:19;;;;;;;5.68;5.05;;;18.20;99.90;;;;;;2094204;28;20020;-69
2021/10/03 05:11:20;;;;;;;7.15;5.18;;;18.20;99.90;;;;;;2085587;28;20045;-69
2021/10/03 05:12:21;;;;;;;5.75;5.15;;;18.20;99.90;;;;;;2092757;28;20017;-69
2021/10/03 05:13:21;;;;;;;5.65;4.75;;;18.20;99.90;;;;;;2088464;28;20808;-69
2021/10/03 05:14:22;;;;;;;5.45;4.95;;;18.20;99.90;;;;;;2081424;28;20087;-69
2021/10/03 05:15:23;;;;;;;6.88;5.22;;;18.20;99.90;;;;;;2080865;28;20021;-69
2021/10/03 05:16:23;;;;;;;5.53;5.03;;;18.20;99.90;;;;;;2088585;28;20033;-69
2021/10/03 05:17:24;;;;;;;5.50;4.75;;;18.10;99.90;;;;;;2083156;28;20599;-69
2021/10/03 05:18:25;;;;;;;5.20;4.72;;;18.10;99.90;;;;;;2079413;28;20381;-69
2021/10/03 05:19:25;;;;;;;7.25;5.70;;;18.10;99.90;;;;;;2079997;28;20079;-70